Nitta Yuma, Mississippi
Current Conditions -  °F | °C
As of 8:53 PM on Saturday 24 Jan 2015 (Local Time) from KGLH Reporting Station
Clear Clear  
Wind Chill: 39°   Ceiling: Unl
Heat Index: 45°   Visibility: 10mi
Dew Point: 35°   Wind: 12mph
Humidity: 68%   Direction: 220°SW
Pressure: 29.97"   Gusts: NA
Location:  33.02°N, 90.85°W
Report Text: KGLH 250253Z AUTO 22010KT 10SM CLR 07/02 A2997 RMK AO2 SLP159 T00720017 58001
Loading
Personal Weather Stations






























Interactive Weather Map New forecast layout! Learn more

10-Day Weather Forecast

Advertisements
Track Severe Weather on mobile